Time;durP1;ratioP1;P1;durP2;ratioP2;P2;SDS_P1;SDS_P2;PMS_P1;PMS_P2;Temp;Humidity;BMP_temperature;BMP_pressure;BME280_temperature;BME280_humidity;BME280_pressure;Samples;Min_cycle;Max_cycle;Signal;HPM_P1;HPM_P2
2023/12/21 00:02:25;;;;;;;21.23;19.17;;;6.90;84.00;;;;;;12654550;28;20035;-74
2023/12/21 00:08:27;;;;;;;20.45;17.98;;;6.70;84.00;;;;;;12619949;28;20356;-74
2023/12/21 00:14:30;;;;;;;26.15;23.50;;;6.70;84.00;;;;;;12654252;28;20032;-74
2023/12/21 00:20:31;;;;;;;22.40;18.55;;;6.60;84.20;;;;;;12653950;28;20032;-74
2023/12/21 00:26:33;;;;;;;27.50;24.90;;;6.80;84.30;;;;;;12635955;28;20035;-74
2023/12/21 00:32:34;;;;;;;21.45;19.27;;;6.80;84.00;;;;;;12654627;28;20028;-74
2023/12/21 00:38:36;;;;;;;20.63;18.42;;;6.80;83.80;;;;;;12663987;28;20027;-74
2023/12/21 00:44:37;;;;;;;20.55;16.30;;;6.50;83.90;;;;;;12663837;28;20483;-74
2023/12/21 00:50:39;;;;;;;25.88;23.15;;;6.30;84.20;;;;;;12664412;28;20038;-74
2023/12/21 00:56:40;;;;;;;18.95;17.15;;;6.20;84.30;;;;;;12645096;28;20038;-74
2023/12/21 01:02:42;;;;;;;19.63;17.00;;;6.10;84.50;;;;;;12644916;28;20024;-74
2023/12/21 01:08:43;;;;;;;19.60;17.60;;;6.20;84.50;;;;;;12662647;28;20035;-74
2023/12/21 01:14:45;;;;;;;19.40;16.63;;;6.20;84.60;;;;;;12662439;28;20032;-74
2023/12/21 01:20:46;;;;;;;18.23;16.13;;;6.50;84.40;;;;;;12662018;28;20031;-74
2023/12/21 01:26:48;;;;;;;19.90;17.80;;;6.60;84.10;;;;;;12661779;28;20028;-75
2023/12/21 01:32:49;;;;;;;27.60;25.38;;;6.60;83.90;;;;;;12661612;28;20031;-75
2023/12/21 01:38:51;;;;;;;27.27;24.63;;;6.50;83.90;;;;;;12661855;28;20031;-74
2023/12/21 01:44:54;;;;;;;19.08;17.08;;;6.50;84.00;;;;;;12659557;28;20338;-74
2023/12/21 01:50:57;;;;;;;28.70;26.05;;;6.60;83.80;;;;;;12660636;28;20027;-74
2023/12/21 01:56:59;;;;;;;24.88;22.40;;;6.60;83.70;;;;;;12660182;28;20137;-74
2023/12/21 02:03:33;;;;;;;27.30;25.02;;;6.60;83.50;;;;;;12626101;28;20055;-74
2023/12/21 02:09:35;;;;;;;25.05;22.88;;;6.50;83.60;;;;;;12659738;28;20028;-74
2023/12/21 02:15:36;;;;;;;20.15;18.00;;;6.50;83.40;;;;;;12641434;28;20028;-75
2023/12/21 02:21:41;;;;;;;16.58;14.00;;;6.40;83.40;;;;;;12659119;28;20028;-75
2023/12/21 02:27:42;;;;;;;16.40;13.25;;;6.20;83.60;;;;;;12658891;28;20039;-74
2023/12/21 02:33:44;;;;;;;18.15;14.90;;;6.10;83.70;;;;;;12658605;28;20028;-74
2023/12/21 02:39:45;;;;;;;22.63;20.77;;;6.00;84.10;;;;;;12658249;28;20028;-74
2023/12/21 02:45:47;;;;;;;16.05;12.55;;;6.20;84.00;;;;;;12640043;28;20027;-74
2023/12/21 02:51:49;;;;;;;19.55;14.93;;;6.20;83.70;;;;;;12657758;28;20039;-74
2023/12/21 02:57:50;;;;;;;17.17;11.85;;;6.30;83.60;;;;;;12638891;28;20036;-74
2023/12/21 03:03:52;;;;;;;17.15;14.30;;;6.30;83.50;;;;;;12639248;28;20460;-74
2023/12/21 03:09:53;;;;;;;16.42;13.15;;;6.20;83.50;;;;;;12656906;28;20051;-74
2023/12/21 03:15:55;;;;;;;55.85;52.22;;;6.20;83.50;;;;;;12656667;28;20055;-74
2023/12/21 03:21:57;;;;;;;17.25;15.52;;;6.20;83.70;;;;;;12656268;28;20023;-75
2023/12/21 03:27:59;;;;;;;16.67;13.82;;;6.20;83.90;;;;;;12621253;28;20032;-75
2023/12/21 03:34:01;;;;;;;19.60;16.70;;;6.10;84.00;;;;;;12655754;28;20028;-75
2023/12/21 03:40:03;;;;;;;19.10;17.02;;;6.10;84.00;;;;;;12637592;28;20051;-75
2023/12/21 03:46:09;;;;;;;20.98;18.65;;;6.10;83.80;;;;;;12655264;28;20324;-75
2023/12/21 03:52:10;;;;;;;16.65;12.98;;;6.00;83.70;;;;;;12654988;28;20051;-75
2023/12/21 03:58:12;;;;;;;16.83;14.65;;;5.90;83.50;;;;;;12636602;28;20050;-75
2023/12/21 04:04:13;;;;;;;15.43;12.38;;;5.60;83.90;;;;;;12654554;28;20030;-75
2023/12/21 04:10:15;;;;;;;17.40;14.10;;;5.50;84.10;;;;;;12653549;28;20356;-75
2023/12/21 04:16:17;;;;;;;26.10;24.02;;;5.50;84.50;;;;;;12635934;28;20036;-75
2023/12/21 04:22:19;;;;;;;22.80;20.63;;;5.50;84.00;;;;;;12653824;28;20028;-75
2023/12/21 04:28:20;;;;;;;29.08;27.10;;;5.40;84.40;;;;;;12653761;28;20036;-75
2023/12/21 04:34:21;;;;;;;14.27;12.80;;;5.40;84.40;;;;;;12654329;28;20333;-75
2023/12/21 04:40:23;;;;;;;31.02;28.83;;;5.40;84.00;;;;;;12653563;28;20040;-75
2023/12/21 04:46:24;;;;;;;22.98;21.02;;;5.20;84.30;;;;;;12653500;28;20036;-75
2023/12/21 04:52:26;;;;;;;19.90;18.15;;;5.30;84.00;;;;;;12653139;28;20440;-75
2023/12/21 04:58:27;;;;;;;23.90;22.10;;;5.20;84.20;;;;;;12635152;28;20424;-75
2023/12/21 05:04:29;;;;;;;24.45;22.27;;;5.20;84.10;;;;;;12653087;28;20453;-75
2023/12/21 05:10:30;;;;;;;31.63;29.23;;;5.10;84.30;;;;;;12634876;28;20050;-75
2023/12/21 05:16:32;;;;;;;19.77;17.85;;;5.30;84.40;;;;;;12636017;28;20333;-75
2023/12/21 05:22:33;;;;;;;30.23;27.48;;;5.70;83.80;;;;;;12659707;28;20035;-75
2023/12/21 05:28:35;;;;;;;23.67;21.33;;;5.60;83.60;;;;;;12661815;28;20035;-75
2023/12/21 05:34:36;;;;;;;20.77;14.77;;;5.80;83.70;;;;;;12643524;28;20455;-75
2023/12/21 05:40:38;;;;;;;19.30;17.30;;;6.20;83.40;;;;;;12661287;28;20036;-75
2023/12/21 05:46:41;;;;;;;62.90;59.17;;;6.10;83.10;;;;;;12661024;28;20057;-75
2023/12/21 05:52:43;;;;;;;20.95;17.88;;;6.20;82.70;;;;;;12660693;28;20034;-75
2023/12/21 05:58:44;;;;;;;22.23;19.98;;;6.20;82.70;;;;;;12660245;28;20031;-75
2023/12/21 06:04:46;;;;;;;54.13;50.45;;;6.00;82.10;;;;;;12642505;28;20043;-75
2023/12/21 06:10:47;;;;;;;23.42;17.58;;;5.70;83.00;;;;;;12659650;28;20040;-75
2023/12/21 06:16:49;;;;;;;31.20;28.10;;;5.90;83.10;;;;;;12659237;28;20429;-75
2023/12/21 06:22:50;;;;;;;27.08;24.35;;;5.90;82.80;;;;;;12617126;28;20327;-75
2023/12/21 06:28:52;;;;;;;41.33;38.03;;;6.20;82.40;;;;;;12608425;28;20445;-75
2023/12/21 06:34:53;;;;;;;29.33;19.95;;;6.50;82.10;;;;;;12607326;28;20029;-75
2023/12/21 06:40:55;;;;;;;30.10;27.38;;;6.70;81.50;;;;;;12589787;28;20460;-75
2023/12/21 06:46:57;;;;;;;95.15;90.22;;;6.90;81.50;;;;;;12607328;28;20024;-75
2023/12/21 06:52:59;;;;;;;40.88;38.20;;;6.80;81.00;;;;;;12607197;28;20449;-75
2023/12/21 06:59:02;;;;;;;103.43;97.97;;;6.90;80.60;;;;;;12631320;23;20333;-75
2023/12/21 07:05:04;;;;;;;93.72;88.88;;;6.90;80.40;;;;;;12656964;28;20035;-75
2023/12/21 07:11:05;;;;;;;87.68;83.45;;;6.70;80.20;;;;;;12632716;28;20035;-75
2023/12/21 07:17:07;;;;;;;73.93;70.05;;;6.60;80.10;;;;;;12656592;28;20039;-75
2023/12/21 07:23:09;;;;;;;16.70;15.20;;;6.10;80.90;;;;;;12654050;28;20456;-75
2023/12/21 07:29:11;;;;;;;46.05;43.08;;;5.80;81.30;;;;;;12656177;28;20040;-75
2023/12/21 07:35:12;;;;;;;20.50;14.48;;;5.50;81.60;;;;;;12656550;28;20028;-75
2023/12/21 07:41:14;;;;;;;20.13;17.98;;;5.20;82.30;;;;;;12655536;28;20039;-76
2023/12/21 07:47:15;;;;;;;20.98;18.77;;;5.30;82.60;;;;;;12655370;28;20032;-75
2023/12/21 07:53:17;;;;;;;18.95;17.02;;;5.40;83.00;;;;;;12655284;28;20032;-74
2023/12/21 07:59:19;;;;;;;37.70;35.08;;;5.80;83.00;;;;;;12636758;28;20035;-74
2023/12/21 08:05:24;;;;;;;19.98;17.73;;;5.60;82.80;;;;;;12653710;28;20440;-74
2023/12/21 08:11:25;;;;;;;30.17;27.70;;;5.70;83.30;;;;;;12653983;28;20020;-74
2023/12/21 08:17:27;;;;;;;49.30;46.22;;;5.70;83.40;;;;;;12654268;28;20032;-73
2023/12/21 08:23:29;;;;;;;20.05;17.15;;;5.90;83.20;;;;;;12654187;28;20053;-73
2023/12/21 08:29:30;;;;;;;22.95;17.60;;;5.80;83.70;;;;;;12654044;28;20032;-73
2023/12/21 08:35:32;;;;;;;20.83;18.67;;;5.90;83.90;;;;;;12635907;28;20036;-73
2023/12/21 08:41:33;;;;;;;22.55;20.50;;;5.90;83.80;;;;;;12653746;28;20356;-73
2023/12/21 08:47:40;;;;;;;24.50;22.10;;;5.70;83.70;;;;;;12635642;28;20028;-73
2023/12/21 08:53:45;;;;;;;27.10;24.88;;;5.80;84.10;;;;;;12636763;28;20039;-73
2023/12/21 08:59:47;;;;;;;34.03;31.15;;;5.80;84.10;;;;;;12663186;28;20348;-73
2023/12/21 09:05:48;;;;;;;77.28;72.93;;;6.10;84.60;;;;;;12628408;28;20028;-73
2023/12/21 09:12:12;;;;;;;81.25;76.88;;;6.20;84.50;;;;;;12663691;28;20142;-74
2023/12/21 09:18:13;;;;;;;36.47;33.38;;;6.30;84.10;;;;;;12662342;28;20032;-74
2023/12/21 09:24:15;;;;;;;109.05;103.65;;;6.60;84.60;;;;;;12662142;28;20028;-74
2023/12/21 09:30:17;;;;;;;89.25;84.45;;;6.60;84.40;;;;;;12661602;28;20054;-74
2023/12/21 09:36:19;;;;;;;129.02;123.03;;;6.60;84.50;;;;;;12661713;28;20028;-74
2023/12/21 09:42:22;;;;;;;119.55;113.75;;;6.70;85.00;;;;;;12661081;28;20027;-74
2023/12/21 09:48:28;;;;;;;128.32;122.40;;;6.90;85.00;;;;;;12660994;28;20028;-74
2023/12/21 09:54:30;;;;;;;142.70;136.23;;;7.10;85.30;;;;;;12642647;28;20036;-74
2023/12/21 10:00:32;;;;;;;184.10;175.52;;;7.30;85.30;;;;;;12660173;28;20083;-74
2023/12/21 10:06:34;;;;;;;174.02;165.63;;;7.40;85.30;;;;;;12641653;28;20027;-74
2023/12/21 10:12:40;;;;;;;116.88;111.00;;;7.60;85.40;;;;;;12659799;28;20113;-73
2023/12/21 10:18:43;;;;;;;209.80;200.43;;;7.70;85.20;;;;;;12659383;28;20031;-73
2023/12/21 10:24:46;;;;;;;131.05;124.82;;;8.10;85.40;;;;;;12659251;28;20437;-73
2023/12/21 10:30:58;;;;;;;51.65;49.17;;;8.30;85.10;;;;;;12658839;28;20032;-74
2023/12/21 10:37:01;;;;;;;46.05;42.95;;;8.40;84.80;;;;;;12658603;28;20043;-73
2023/12/21 10:43:03;;;;;;;37.05;34.95;;;8.40;84.60;;;;;;12658179;28;20035;-72
2023/12/21 10:49:07;;;;;;;36.63;34.13;;;8.30;84.50;;;;;;12658039;28;20024;-71
2023/12/21 10:55:12;;;;;;;82.43;78.00;;;8.40;84.90;;;;;;12657680;28;20349;-74
2023/12/21 11:01:14;;;;;;;45.38;40.35;;;8.30;84.60;;;;;;12657462;28;20043;-74
2023/12/21 11:07:18;;;;;;;33.45;30.35;;;8.40;85.00;;;;;;12657121;28;20035;-74
2023/12/21 11:13:19;;;;;;;28.63;24.77;;;8.50;84.90;;;;;;12638735;28;20035;-74
2023/12/21 11:19:34;;;;;;;30.88;27.80;;;8.40;85.10;;;;;;12621394;28;20028;-72
2023/12/21 11:25:36;;;;;;;18.75;16.23;;;8.60;85.50;;;;;;12638130;28;20345;-72
2023/12/21 11:31:39;;;;;;;19.02;16.38;;;8.80;85.00;;;;;;12656128;28;20032;-72
2023/12/21 11:37:42;;;;;;;19.13;15.07;;;9.00;85.30;;;;;;12637637;28;20032;-72
2023/12/21 11:44:03;;;;;;;18.50;15.45;;;8.80;85.00;;;;;;12631963;28;20020;-72
2023/12/21 11:50:09;;;;;;;18.08;14.48;;;8.70;85.60;;;;;;12636006;28;20420;-72
2023/12/21 11:56:14;;;;;;;27.38;20.50;;;8.90;85.70;;;;;;12654601;28;20040;-72
2023/12/21 12:02:16;;;;;;;25.33;21.77;;;8.80;86.00;;;;;;12636007;28;20042;-72
2023/12/21 12:08:24;;;;;;;23.30;20.83;;;9.00;86.20;;;;;;12654050;28;20039;-72
2023/12/21 12:14:26;;;;;;;22.08;19.65;;;9.20;86.10;;;;;;12653372;28;20329;-72
2023/12/21 12:20:29;;;;;;;21.23;18.98;;;9.30;86.00;;;;;;12652027;28;20036;-72
2023/12/21 12:26:30;;;;;;;24.85;21.38;;;9.20;86.10;;;;;;12636375;28;20044;-71
2023/12/21 12:32:33;;;;;;;25.02;21.17;;;9.40;86.40;;;;;;12605354;28;20352;-74
2023/12/21 12:38:45;;;;;;;25.70;22.55;;;9.50;86.10;;;;;;12603519;28;20040;-72
2023/12/21 12:44:51;;;;;;;28.60;23.30;;;9.40;86.20;;;;;;12585646;28;20032;-72
2023/12/21 12:50:58;;;;;;;27.23;22.17;;;9.40;86.30;;;;;;12585713;28;20131;-73
2023/12/21 12:57:03;;;;;;;27.60;22.15;;;9.50;86.50;;;;;;12603069;28;20032;-73
2023/12/21 13:03:05;;;;;;;24.35;21.83;;;9.60;86.40;;;;;;12602994;28;20032;-73
2023/12/21 13:09:06;;;;;;;26.98;22.80;;;9.60;86.40;;;;;;12602870;28;20032;-73
2023/12/21 13:15:09;;;;;;;22.13;18.63;;;9.60;86.30;;;;;;12601780;28;20045;-73
2023/12/21 13:21:14;;;;;;;24.15;21.60;;;9.70;86.30;;;;;;12602557;28;20368;-73
2023/12/21 13:27:16;;;;;;;38.63;31.08;;;9.80;86.30;;;;;;12602427;28;20035;-73
2023/12/21 13:33:17;;;;;;;31.42;24.85;;;9.80;86.40;;;;;;12602266;28;20040;-73
2023/12/21 13:39:20;;;;;;;31.60;26.48;;;9.90;86.40;;;;;;12601302;28;20353;-73
2023/12/21 13:45:23;;;;;;;25.52;22.20;;;9.90;86.30;;;;;;12593036;28;20031;-73
2023/12/21 13:51:25;;;;;;;28.42;25.35;;;10.00;86.20;;;;;;12610654;28;20028;-73
2023/12/21 13:57:26;;;;;;;29.08;23.55;;;10.10;86.30;;;;;;12611001;28;20044;-74
2023/12/21 14:03:28;;;;;;;30.77;27.13;;;10.20;86.10;;;;;;12610040;28;20037;-74
2023/12/21 14:09:30;;;;;;;32.45;27.95;;;10.20;86.10;;;;;;12625787;28;20055;-74
2023/12/21 14:15:31;;;;;;;30.55;25.70;;;10.20;86.10;;;;;;12608410;28;20318;-74
2023/12/21 14:21:33;;;;;;;31.30;27.88;;;10.40;86.00;;;;;;12591461;28;20452;-74
2023/12/21 14:27:34;;;;;;;28.42;25.40;;;10.50;86.00;;;;;;12609072;28;20029;-74
2023/12/21 14:33:36;;;;;;;30.20;26.35;;;10.50;85.90;;;;;;12608684;28;20025;-74
2023/12/21 14:39:38;;;;;;;28.92;26.02;;;10.50;86.00;;;;;;12590266;28;20040;-74
2023/12/21 14:45:39;;;;;;;27.27;24.48;;;10.60;85.90;;;;;;12608715;28;20028;-74
2023/12/21 14:51:41;;;;;;;28.80;25.73;;;10.60;85.70;;;;;;12606809;28;20028;-74
2023/12/21 14:57:43;;;;;;;31.33;27.95;;;10.40;85.60;;;;;;12634510;22;20052;-74
2023/12/21 15:03:44;;;;;;;26.63;23.88;;;10.20;85.80;;;;;;12614128;28;20040;-74
2023/12/21 15:09:46;;;;;;;25.15;22.15;;;10.20;85.70;;;;;;12615874;28;20025;-74
2023/12/21 15:15:48;;;;;;;32.38;28.90;;;9.70;85.60;;;;;;12645734;28;20036;-74
2023/12/21 15:21:51;;;;;;;28.85;25.80;;;9.40;86.30;;;;;;12613937;28;20040;-74
2023/12/21 15:27:54;;;;;;;30.10;26.95;;;9.50;86.50;;;;;;12658358;28;20364;-74
2023/12/21 15:33:56;;;;;;;33.63;27.65;;;9.70;86.30;;;;;;12656037;28;20035;-74
2023/12/21 15:39:58;;;;;;;29.95;26.77;;;9.80;86.00;;;;;;12637676;28;20034;-73
2023/12/21 15:45:59;;;;;;;29.17;26.08;;;9.80;85.60;;;;;;12637426;28;20055;-73
2023/12/21 15:52:01;;;;;;;35.20;28.85;;;9.80;85.40;;;;;;12655282;28;20046;-73
2023/12/21 15:58:03;;;;;;;32.30;28.73;;;9.60;85.40;;;;;;12655005;28;20447;-73
2023/12/21 16:04:05;;;;;;;32.95;29.77;;;9.50;85.50;;;;;;12653936;28;20031;-72
2023/12/21 16:10:07;;;;;;;36.28;33.38;;;9.20;85.40;;;;;;12654633;28;20039;-72
2023/12/21 16:16:09;;;;;;;78.18;73.78;;;9.10;85.40;;;;;;12654401;28;20024;-73
2023/12/21 16:22:10;;;;;;;104.88;99.10;;;8.90;85.60;;;;;;12654192;28;20023;-73
2023/12/21 16:28:12;;;;;;;178.13;168.98;;;8.70;85.80;;;;;;12630188;28;20032;-73
2023/12/21 16:34:14;;;;;;;104.75;98.97;;;8.50;85.80;;;;;;12604446;28;20425;-73
2023/12/21 16:40:19;;;;;;;107.63;101.53;;;8.70;86.00;;;;;;12585674;28;20091;-73
2023/12/21 16:46:21;;;;;;;110.35;104.00;;;9.00;85.40;;;;;;12603448;28;20040;-73
2023/12/21 16:52:23;;;;;;;36.78;33.47;;;9.10;84.90;;;;;;12603201;28;20044;-73
2023/12/21 16:58:25;;;;;;;38.05;33.92;;;9.30;84.80;;;;;;12653491;28;20031;-73
2023/12/21 17:04:28;;;;;;;33.13;29.20;;;9.40;84.30;;;;;;12653235;28;20336;-73
2023/12/21 17:10:29;;;;;;;46.65;41.85;;;9.50;83.80;;;;;;12653084;28;20028;-72
2023/12/21 17:16:31;;;;;;;59.67;54.80;;;9.20;83.60;;;;;;12657027;28;20032;-72
2023/12/21 17:22:33;;;;;;;86.90;81.10;;;8.90;83.30;;;;;;12662292;28;20062;-75
2023/12/21 17:28:35;;;;;;;183.13;172.82;;;8.70;83.20;;;;;;12660911;28;20452;-74
2023/12/21 17:34:37;;;;;;;190.32;179.90;;;8.40;83.70;;;;;;12661739;28;20051;-74
2023/12/21 17:40:40;;;;;;;145.38;135.75;;;8.10;83.80;;;;;;12661397;28;20024;-74
2023/12/21 17:46:46;;;;;;;115.82;107.68;;;8.10;83.90;;;;;;12660368;28;20047;-74
2023/12/21 17:52:49;;;;;;;173.40;164.10;;;8.10;83.80;;;;;;12661009;28;20028;-75
2023/12/21 17:58:51;;;;;;;210.75;198.55;;;8.40;83.50;;;;;;12659442;28;20023;-75
2023/12/21 18:04:53;;;;;;;164.48;153.90;;;8.30;83.20;;;;;;12660321;28;20039;-75
2023/12/21 18:10:55;;;;;;;203.80;192.30;;;8.40;82.90;;;;;;12660105;28;20031;-75
2023/12/21 18:16:58;;;;;;;143.77;133.70;;;8.00;83.10;;;;;;12658384;28;20036;-75
2023/12/21 18:23:00;;;;;;;77.80;71.63;;;7.50;83.80;;;;;;12658237;28;20036;-74
2023/12/21 18:29:08;;;;;;;63.65;58.15;;;7.70;84.00;;;;;;12658236;28;20039;-75
2023/12/21 18:35:10;;;;;;;65.93;60.40;;;7.50;83.70;;;;;;12693647;28;20031;-74
2023/12/21 18:41:12;;;;;;;64.55;59.47;;;7.30;84.10;;;;;;12691003;28;20035;-74
2023/12/21 18:47:15;;;;;;;66.22;60.20;;;7.20;84.40;;;;;;12709043;28;20028;-74
2023/12/21 18:53:17;;;;;;;71.97;66.03;;;7.20;84.70;;;;;;12708662;28;20027;-75
2023/12/21 18:59:26;;;;;;;78.60;71.78;;;7.50;84.70;;;;;;12690090;28;20034;-74
2023/12/21 19:05:59;;;;;;;125.37;116.77;;;7.80;84.20;;;;;;12684349;28;20352;-75
2023/12/21 19:12:01;;;;;;;108.47;101.65;;;8.20;84.00;;;;;;12689664;28;20452;-74
2023/12/21 19:18:03;;;;;;;223.95;212.85;;;8.10;83.50;;;;;;12707250;28;20035;-75
2023/12/21 19:24:04;;;;;;;193.40;182.90;;;8.10;83.20;;;;;;12707659;28;20040;-74
2023/12/21 19:30:09;;;;;;;98.60;90.50;;;7.90;83.20;;;;;;12705613;28;20024;-74
2023/12/21 19:36:15;;;;;;;175.30;165.63;;;8.00;83.40;;;;;;12706589;28;20024;-74
2023/12/21 19:42:17;;;;;;;94.32;87.53;;;8.10;82.70;;;;;;12704883;28;20043;-75
2023/12/21 19:48:25;;;;;;;87.80;81.55;;;7.80;82.90;;;;;;12705986;28;20024;-75
2023/12/21 19:54:26;;;;;;;76.35;70.57;;;7.70;82.70;;;;;;12705641;28;20027;-74
2023/12/21 20:00:28;;;;;;;76.60;70.40;;;7.70;83.20;;;;;;12705187;28;20034;-74
2023/12/21 20:06:30;;;;;;;171.98;161.63;;;7.60;83.20;;;;;;12686865;28;20043;-74
2023/12/21 20:12:32;;;;;;;74.28;68.28;;;7.70;82.70;;;;;;12686902;28;20039;-74
2023/12/21 20:18:36;;;;;;;149.45;139.30;;;7.30;83.20;;;;;;12704679;28;20031;-74
2023/12/21 20:24:43;;;;;;;52.75;47.67;;;7.20;83.10;;;;;;12704652;28;20031;-74
2023/12/21 20:30:44;;;;;;;66.03;60.13;;;7.10;83.50;;;;;;12686310;28;20344;-74
2023/12/21 20:36:46;;;;;;;82.20;75.60;;;7.30;83.80;;;;;;12704322;28;20027;-74
2023/12/21 20:42:49;;;;;;;48.88;43.80;;;7.30;83.20;;;;;;12704051;28;20336;-74
2023/12/21 20:48:50;;;;;;;55.67;48.72;;;6.90;83.30;;;;;;12704826;28;20035;-75
2023/12/21 20:54:52;;;;;;;107.78;99.70;;;6.70;83.50;;;;;;12695350;28;20035;-75
2023/12/21 21:01:20;;;;;;;58.90;50.08;;;6.40;83.90;;;;;;12713850;28;20032;-74
2023/12/21 21:07:54;;;;;;;38.85;30.25;;;6.20;84.40;;;;;;12713699;28;20027;-74
2023/12/21 21:14:27;;;;;;;46.88;41.72;;;6.40;84.20;;;;;;12713176;28;20031;-75
2023/12/21 21:20:31;;;;;;;36.80;31.05;;;6.60;84.50;;;;;;12694867;28;20027;-74
2023/12/21 21:26:36;;;;;;;39.40;34.50;;;6.50;83.80;;;;;;12694639;28;20028;-74
2023/12/21 21:32:37;;;;;;;45.35;39.45;;;6.50;84.20;;;;;;12712629;28;20027;-75
2023/12/21 21:38:39;;;;;;;36.45;32.42;;;6.70;83.80;;;;;;12712174;28;20028;-74
2023/12/21 21:44:41;;;;;;;42.03;36.88;;;6.50;83.50;;;;;;12710987;27;20020;-74
2023/12/21 21:50:43;;;;;;;38.38;33.15;;;6.30;83.90;;;;;;12693641;28;20043;-75
2023/12/21 21:56:44;;;;;;;43.67;38.70;;;6.40;84.30;;;;;;12712287;28;20031;-75
2023/12/21 22:02:46;;;;;;;39.58;35.47;;;6.30;84.00;;;;;;12711275;28;20027;-74
2023/12/21 22:08:48;;;;;;;51.50;46.38;;;6.10;84.10;;;;;;12711081;28;20348;-75
2023/12/21 22:14:52;;;;;;;37.95;33.85;;;6.20;84.50;;;;;;12710787;28;20061;-75
2023/12/21 22:20:58;;;;;;;41.08;34.80;;;6.70;84.50;;;;;;12693150;28;20044;-75
2023/12/21 22:27:00;;;;;;;35.17;28.83;;;6.40;83.70;;;;;;12692060;28;20028;-75
2023/12/21 22:33:02;;;;;;;33.25;29.75;;;6.10;83.80;;;;;;12691986;28;20035;-75
2023/12/21 22:39:05;;;;;;;36.88;33.05;;;5.70;84.20;;;;;;12709559;28;20452;-75
2023/12/21 22:45:06;;;;;;;34.42;29.77;;;5.80;84.30;;;;;;12674747;28;20047;-75
2023/12/21 22:51:09;;;;;;;40.53;36.45;;;5.80;84.10;;;;;;12690908;28;20032;-75
2023/12/21 22:57:11;;;;;;;47.92;42.88;;;5.60;84.00;;;;;;12634153;22;20366;-75
2023/12/21 23:03:12;;;;;;;38.83;33.33;;;5.70;84.50;;;;;;12509123;28;20048;-75
2023/12/21 23:09:14;;;;;;;63.08;58.15;;;5.70;84.10;;;;;;12508016;28;20037;-75
2023/12/21 23:15:35;;;;;;;59.05;51.00;;;5.70;84.00;;;;;;12507245;28;20033;-75
2023/12/21 23:21:36;;;;;;;49.17;44.25;;;5.60;84.20;;;;;;12489809;28;20438;-75
2023/12/21 23:27:38;;;;;;;50.03;45.10;;;5.80;84.10;;;;;;12507916;28;20060;-75
2023/12/21 23:33:39;;;;;;;43.38;38.58;;;5.90;83.70;;;;;;12506931;28;20025;-75
2023/12/21 23:39:41;;;;;;;42.05;35.85;;;6.00;84.10;;;;;;12506562;28;20037;-75
2023/12/21 23:45:43;;;;;;;43.38;38.78;;;5.70;83.60;;;;;;12455138;28;20055;-75
2023/12/21 23:51:44;;;;;;;41.03;34.58;;;5.60;84.10;;;;;;12506150;28;20036;-75
2023/12/21 23:57:46;;;;;;;49.35;44.88;;;5.70;84.30;;;;;;12488297;28;20068;-75
